createdAt,value
2019-06-20T00:00:52.000Z,2.85
2019-06-20T00:03:20.836Z,2.87
2019-06-20T00:05:49.523Z,2.83
2019-06-20T00:08:18.270Z,2.83
2019-06-20T00:10:46.996Z,3.02
2019-06-20T00:13:15.582Z,3.27
2019-06-20T00:15:44.763Z,2.72
2019-06-20T00:18:13.529Z,2.70
2019-06-20T00:20:43.105Z,2.85
2019-06-20T00:23:11.767Z,2.95
2019-06-20T00:25:40.642Z,2.70
2019-06-20T00:28:09.391Z,3.10
2019-06-20T00:30:38.020Z,2.90
2019-06-20T00:33:06.948Z,2.50
2019-06-20T00:35:35.522Z,2.77
2019-06-20T00:38:04.127Z,3.25
2019-06-20T00:40:32.787Z,2.40
2019-06-20T00:43:16.344Z,2.60
2019-06-20T00:45:31.686Z,2.93
2019-06-20T00:48:00.398Z,3.00
2019-06-20T00:50:29.046Z,3.42
2019-06-20T00:52:57.716Z,2.85
2019-06-20T00:55:26.563Z,2.80
2019-06-20T00:57:55.121Z,2.90
2019-06-20T01:00:23.793Z,2.90
2019-06-20T01:02:52.384Z,3.27
2019-06-20T01:05:21.412Z,3.40
2019-06-20T01:07:50.104Z,3.12
2019-06-20T01:10:18.985Z,3.00
2019-06-20T01:12:47.603Z,3.08
2019-06-20T01:15:16.767Z,3.27
2019-06-20T01:17:45.493Z,3.33
2019-06-20T01:20:15.866Z,3.00
2019-06-20T01:22:44.532Z,2.85
2019-06-20T01:25:13.436Z,3.08
2019-06-20T01:27:42.148Z,3.30
2019-06-20T01:30:11.783Z,3.50
2019-06-20T01:32:40.588Z,3.40
2019-06-20T01:35:09.904Z,3.33
2019-06-20T01:37:38.899Z,3.45
2019-06-20T01:40:08.140Z,3.35
2019-06-20T01:42:36.781Z,3.17
2019-06-20T01:45:08.565Z,3.00
2019-06-20T01:47:37.309Z,3.40
2019-06-20T01:50:07.243Z,3.15
2019-06-20T01:52:36.022Z,3.35
2019-06-20T01:55:05.738Z,3.03
2019-06-20T01:57:34.606Z,3.30
2019-06-20T02:00:03.922Z,3.05
2019-06-20T02:02:32.773Z,3.47
2019-06-20T02:05:01.537Z,3.40
2019-06-20T02:07:30.551Z,3.45
2019-06-20T02:09:59.437Z,3.10
2019-06-20T02:12:27.964Z,3.03
2019-06-20T02:14:56.492Z,3.25
2019-06-20T02:17:25.038Z,3.25
2019-06-20T02:19:53.774Z,3.20
2019-06-20T02:22:22.381Z,2.80
2019-06-20T02:24:51.126Z,2.90
2019-06-20T02:27:20.938Z,2.77
2019-06-20T02:29:49.493Z,3.20
2019-06-20T02:32:18.267Z,3.10
2019-06-20T02:34:47.101Z,3.22
2019-06-20T02:37:15.770Z,2.75
2019-06-20T02:39:44.450Z,3.20
2019-06-20T02:42:13.279Z,3.33
2019-06-20T02:44:41.935Z,3.20
2019-06-20T02:47:10.890Z,3.02
2019-06-20T02:49:39.514Z,3.00
2019-06-20T02:52:08.835Z,2.77
2019-06-20T02:54:37.499Z,3.08
2019-06-20T02:57:06.069Z,3.40
2019-06-20T02:59:34.727Z,3.27
2019-06-20T03:02:03.327Z,3.12
2019-06-20T03:04:32.383Z,3.45
2019-06-20T03:07:01.415Z,3.10
2019-06-20T03:09:30.283Z,3.55
2019-06-20T03:11:59.046Z,3.35
2019-06-20T03:14:41.787Z,3.20
2019-06-20T03:16:59.653Z,2.90
2019-06-20T03:19:29.063Z,3.10
2019-06-20T03:21:58.320Z,3.02
2019-06-20T03:24:27.540Z,2.95
2019-06-20T03:26:57.481Z,2.87
2019-06-20T03:29:26.832Z,2.80
2019-06-20T03:31:56.316Z,3.08
2019-06-20T03:34:26.015Z,3.52
2019-06-20T03:36:55.549Z,3.05
2019-06-20T03:39:25.005Z,2.97
2019-06-20T03:41:54.834Z,3.05
2019-06-20T03:44:24.630Z,2.72
2019-06-20T03:46:53.760Z,3.00
2019-06-20T03:49:23.324Z,3.42
2019-06-20T03:51:52.572Z,3.60
2019-06-20T03:54:22.075Z,3.37
2019-06-20T03:56:51.650Z,3.67
2019-06-20T03:59:20.749Z,3.35
2019-06-20T04:01:50.406Z,3.15
2019-06-20T04:04:19.606Z,3.30
2019-06-20T04:06:49.505Z,3.75
2019-06-20T04:09:19.006Z,2.87
2019-06-20T04:11:48.316Z,3.10
2019-06-20T04:14:17.619Z,2.90
2019-06-20T04:16:46.853Z,3.25
2019-06-20T04:19:16.415Z,3.17
2019-06-20T04:21:45.487Z,3.10
2019-06-20T04:24:14.764Z,2.67
2019-06-20T04:26:44.042Z,3.10
2019-06-20T04:29:13.253Z,2.90
2019-06-20T04:31:42.759Z,3.60
2019-06-20T04:34:12.253Z,2.90
2019-06-20T04:36:42.026Z,2.93
2019-06-20T04:39:19.126Z,3.10
2019-06-20T04:41:42.748Z,2.90
2019-06-20T04:44:12.562Z,2.77
2019-06-20T04:46:52.586Z,3.02
2019-06-20T04:49:22.058Z,2.85
2019-06-20T04:51:51.485Z,3.02
2019-06-20T04:54:20.894Z,2.95
2019-06-20T04:56:50.507Z,2.90
2019-06-20T04:59:19.884Z,2.90
2019-06-20T05:01:49.249Z,3.08
2019-06-20T05:04:18.285Z,2.95
2019-06-20T05:06:50.459Z,2.95
2019-06-20T05:09:19.982Z,3.20
2019-06-20T05:11:49.364Z,3.05
2019-06-20T05:14:19.590Z,3.30
2019-06-20T05:16:49.135Z,3.12
2019-06-20T05:19:18.393Z,2.90
2019-06-20T05:21:48.106Z,3.30
2019-06-20T05:24:17.705Z,2.77
2019-06-20T05:26:47.137Z,2.90
2019-06-20T05:29:16.664Z,2.02
2019-06-20T05:31:46.200Z,3.22
2019-06-20T05:34:15.476Z,3.03
2019-06-20T05:36:44.689Z,2.73
2019-06-20T05:39:13.857Z,2.90
2019-06-20T05:41:43.251Z,2.50
2019-06-20T05:44:12.743Z,2.83
2019-06-20T05:46:43.005Z,2.90
2019-06-20T05:49:12.209Z,2.80
2019-06-20T05:51:41.826Z,2.90
2019-06-20T05:54:11.398Z,3.87
2019-06-20T05:56:40.708Z,3.80
2019-06-20T05:59:10.170Z,3.75
2019-06-20T06:01:39.798Z,2.60
2019-06-20T06:04:09.528Z,3.60
2019-06-20T06:06:38.993Z,3.35
2019-06-20T06:09:09.571Z,3.10
2019-06-20T06:11:39.460Z,3.42
2019-06-20T06:14:09.009Z,3.40
2019-06-20T06:16:38.408Z,3.20
2019-06-20T06:19:07.910Z,3.53
2019-06-20T06:21:37.400Z,3.58
2019-06-20T06:24:06.975Z,3.50
2019-06-20T06:26:36.043Z,3.98
2019-06-20T06:29:05.671Z,3.87
2019-06-20T06:31:35.120Z,4.03
2019-06-20T06:34:04.359Z,4.15
2019-06-20T06:36:33.630Z,3.27
2019-06-20T06:39:02.792Z,3.55
2019-06-20T06:41:31.931Z,4.17
2019-06-20T06:44:01.052Z,3.27
2019-06-20T06:46:43.677Z,3.30
2019-06-20T06:49:01.765Z,3.75
2019-06-20T06:51:31.316Z,3.65
2019-06-20T06:54:00.820Z,3.40
2019-06-20T06:56:30.163Z,3.92
2019-06-20T06:58:59.790Z,3.47
2019-06-20T07:01:29.357Z,3.02
2019-06-20T07:03:59.011Z,3.27
2019-06-20T07:06:28.181Z,3.30
2019-06-20T07:08:57.755Z,3.10
2019-06-20T07:11:27.385Z,2.60
2019-06-20T07:13:56.497Z,2.72
2019-06-20T07:16:25.918Z,2.62
2019-06-20T07:18:55.435Z,2.62
2019-06-20T07:21:25.128Z,3.15
2019-06-20T07:23:54.635Z,3.17
2019-06-20T07:26:24.195Z,2.42
2019-06-20T07:28:54.106Z,2.37
2019-06-20T07:31:23.656Z,2.52
2019-06-20T07:33:53.204Z,2.55
2019-06-20T07:36:22.406Z,2.27
2019-06-20T07:38:52.298Z,2.60
2019-06-20T07:41:21.763Z,2.23
2019-06-20T07:43:51.233Z,1.90
2019-06-20T07:46:20.667Z,2.50
2019-06-20T07:48:49.940Z,1.87
2019-06-20T07:51:19.484Z,1.90
2019-06-20T07:53:48.797Z,1.90
2019-06-20T07:56:17.960Z,3.90
2019-06-20T07:58:46.907Z,2.27
2019-06-20T08:01:16.057Z,2.00
2019-06-20T08:03:45.430Z,2.00
2019-06-20T08:06:14.635Z,1.92
2019-06-20T08:08:43.852Z,1.65
2019-06-20T08:11:13.188Z,1.90
2019-06-20T08:13:42.889Z,1.85
2019-06-20T08:16:12.326Z,1.52
2019-06-20T08:18:42.185Z,2.08
2019-06-20T08:21:12.136Z,1.57
2019-06-20T08:23:41.390Z,1.70
2019-06-20T08:26:11.039Z,1.73
2019-06-20T08:28:40.505Z,1.90
2019-06-20T08:31:10.123Z,1.77
2019-06-20T08:33:39.543Z,1.65
2019-06-20T08:36:09.403Z,1.90
2019-06-20T08:38:38.677Z,1.70
2019-06-20T08:41:07.707Z,1.67
2019-06-20T08:43:37.033Z,1.85
2019-06-20T08:46:10.066Z,1.70
2019-06-20T08:48:36.959Z,2.00
2019-06-20T08:51:06.626Z,2.23
2019-06-20T08:53:36.010Z,1.80
2019-06-20T08:56:05.533Z,2.20
2019-06-20T08:58:35.081Z,1.30
2019-06-20T09:03:34.692Z,1.70
2019-06-20T09:06:04.418Z,1.57
2019-06-20T09:08:33.780Z,1.40
2019-06-20T09:11:04.069Z,1.37
2019-06-20T09:13:33.561Z,1.50
2019-06-20T09:16:03.315Z,1.30
2019-06-20T09:18:32.849Z,1.45
2019-06-20T09:21:02.440Z,1.82
2019-06-20T09:23:31.869Z,1.60
2019-06-20T09:26:01.974Z,1.70
2019-06-20T09:28:31.307Z,1.37
2019-06-20T09:31:00.484Z,1.30
2019-06-20T09:33:29.527Z,1.40
2019-06-20T09:35:59.575Z,1.62
2019-06-20T09:38:29.428Z,1.50
2019-06-20T09:40:59.191Z,1.70
2019-06-20T09:43:29.250Z,1.82
2019-06-20T09:45:58.683Z,1.80
2019-06-20T09:48:28.220Z,2.00
2019-06-20T09:50:58.555Z,1.60
2019-06-20T09:53:28.189Z,1.80
2019-06-20T09:55:57.820Z,1.98
2019-06-20T09:58:27.771Z,1.62
2019-06-20T10:00:57.468Z,1.95
2019-06-20T10:03:26.880Z,1.77
2019-06-20T10:05:56.710Z,2.30
2019-06-20T10:08:26.348Z,2.00
2019-06-20T10:10:56.286Z,1.92
2019-06-20T10:13:25.809Z,1.85
2019-06-20T10:15:55.660Z,1.50
2019-06-20T10:18:25.132Z,1.55
2019-06-20T10:20:54.598Z,1.50
2019-06-20T10:23:24.433Z,1.57
2019-06-20T10:25:53.759Z,1.42
2019-06-20T10:28:23.105Z,1.60
2019-06-20T10:30:53.428Z,1.80
2019-06-20T10:33:23.110Z,1.90
2019-06-20T10:35:52.696Z,2.12
2019-06-20T10:38:22.214Z,2.17
2019-06-20T10:40:52.059Z,1.98
2019-06-20T10:43:21.586Z,1.90
2019-06-20T10:45:50.998Z,1.77
2019-06-20T10:48:20.462Z,1.50
2019-06-20T10:50:49.860Z,1.50
2019-06-20T10:53:19.622Z,1.67
2019-06-20T10:55:49.057Z,1.40
2019-06-20T10:58:18.354Z,1.57
2019-06-20T11:00:48.370Z,1.80
2019-06-20T11:03:18.086Z,1.80
2019-06-20T11:05:48.151Z,1.40
2019-06-20T11:08:17.448Z,1.40
2019-06-20T11:10:47.198Z,1.40
2019-06-20T11:13:16.446Z,1.40
2019-06-20T11:15:46.221Z,1.45
2019-06-20T11:18:15.744Z,1.52
2019-06-20T11:20:46.579Z,1.20
2019-06-20T11:23:16.063Z,1.00
2019-06-20T11:25:46.638Z,1.00
2019-06-20T11:28:16.202Z,1.20
2019-06-20T11:30:55.991Z,0.90
2019-06-20T11:33:16.934Z,1.10
2019-06-20T11:35:46.342Z,1.10
2019-06-20T11:38:15.451Z,1.00
2019-06-20T11:40:44.593Z,1.10
2019-06-20T11:43:15.242Z,1.12
2019-06-20T11:45:47.298Z,1.20
2019-06-20T11:48:17.020Z,1.10
2019-06-20T11:50:46.872Z,1.00
2019-06-20T11:53:16.498Z,1.00
2019-06-20T11:55:45.685Z,0.90
2019-06-20T11:58:15.028Z,1.02
2019-06-20T12:00:44.413Z,1.02
2019-06-20T12:03:13.707Z,1.00
2019-06-20T12:05:43.261Z,1.02
2019-06-20T12:08:12.386Z,0.90
2019-06-20T12:10:43.083Z,0.98
2019-06-20T12:13:12.297Z,1.12
2019-06-20T12:15:42.759Z,1.17
2019-06-20T12:18:12.276Z,0.90
2019-06-20T12:20:42.813Z,0.97
2019-06-20T12:23:12.502Z,0.90
2019-06-20T12:25:42.646Z,0.85
2019-06-20T12:28:12.643Z,1.10
2019-06-20T12:30:43.459Z,1.10
2019-06-20T12:33:14.080Z,0.80
2019-06-20T12:35:44.497Z,0.90
2019-06-20T12:38:15.237Z,0.80
2019-06-20T12:40:46.161Z,0.60
2019-06-20T12:45:44.291Z,0.60
2019-06-20T12:48:14.075Z,0.40
2019-06-20T12:50:43.345Z,0.50
2019-06-20T12:53:12.835Z,0.50
2019-06-20T12:55:42.431Z,0.50
2019-06-20T12:58:11.479Z,0.50
2019-06-20T13:00:41.672Z,0.50
2019-06-20T13:05:40.133Z,0.60
2019-06-20T13:10:40.243Z,0.35
2019-06-20T13:13:09.635Z,0.50
2019-06-20T13:15:39.043Z,0.57
2019-06-20T13:18:09.634Z,0.45
2019-06-20T13:20:40.534Z,0.50
2019-06-20T13:23:09.923Z,0.60
2019-06-20T13:25:40.878Z,0.40
2019-06-20T13:28:10.096Z,0.60
2019-06-20T13:30:40.275Z,0.57
2019-06-20T13:33:10.254Z,0.42
2019-06-20T13:35:41.584Z,0.65
2019-06-20T13:38:10.829Z,0.50
2019-06-20T13:40:41.379Z,0.60
2019-06-20T13:43:10.958Z,0.50
2019-06-20T13:45:41.193Z,0.40
2019-06-20T13:48:11.358Z,0.50
2019-06-20T13:50:41.914Z,0.40
2019-06-20T13:55:41.210Z,0.30
2019-06-20T13:58:11.243Z,0.55
2019-06-20T14:00:42.825Z,0.50
2019-06-20T14:03:12.389Z,0.40
2019-06-20T14:05:42.832Z,0.60
2019-06-20T14:08:12.644Z,0.50
2019-06-20T14:10:44.123Z,0.30
2019-06-20T14:13:19.233Z,0.50
2019-06-20T14:15:44.913Z,0.35
2019-06-20T14:18:15.476Z,0.50
2019-06-20T14:20:45.055Z,0.30
2019-06-20T14:25:44.155Z,0.50
2019-06-20T14:28:13.616Z,0.40
2019-06-20T14:30:44.467Z,0.60
2019-06-20T14:33:14.117Z,0.62
2019-06-20T14:35:45.344Z,0.55
2019-06-20T14:38:14.815Z,0.95
2019-06-20T14:40:45.301Z,0.70
2019-06-20T14:43:14.920Z,0.98
2019-06-20T14:45:45.537Z,0.50
2019-06-20T14:48:15.619Z,1.00
2019-06-20T14:50:46.461Z,0.98
2019-06-20T14:55:46.014Z,1.30
2019-06-20T14:58:16.033Z,1.40
2019-06-20T15:00:46.974Z,1.40
2019-06-20T15:03:16.458Z,1.60
2019-06-20T15:05:46.592Z,1.75
2019-06-20T15:08:16.831Z,1.60
2019-06-20T15:10:48.071Z,1.70
2019-06-20T15:13:17.505Z,1.60
2019-06-20T15:15:47.907Z,1.70
2019-06-20T15:18:17.645Z,2.25
2019-06-20T15:20:48.299Z,2.17
2019-06-20T15:23:17.659Z,2.37
2019-06-20T15:25:48.752Z,2.45
2019-06-20T15:30:47.698Z,2.22
2019-06-20T15:33:17.220Z,2.33
2019-06-20T15:35:47.247Z,2.47
2019-06-20T15:38:17.245Z,2.77
2019-06-20T15:40:47.881Z,2.77
2019-06-20T15:43:17.336Z,3.20
2019-06-20T15:45:48.373Z,3.25
2019-06-20T15:48:17.310Z,3.60
2019-06-20T15:50:46.919Z,3.67
2019-06-20T15:53:16.461Z,3.40
2019-06-20T15:55:45.731Z,3.40
2019-06-20T15:58:15.014Z,3.25
2019-06-20T16:00:44.213Z,3.60
2019-06-20T16:03:14.797Z,2.60
2019-06-20T16:05:44.741Z,3.40
2019-06-20T16:08:14.276Z,2.90
2019-06-20T16:10:43.593Z,3.17
2019-06-20T16:13:12.737Z,3.20
2019-06-20T16:15:42.439Z,2.98
2019-06-20T16:18:11.736Z,3.02
2019-06-20T16:20:41.245Z,3.37
2019-06-20T16:23:10.770Z,2.70
2019-06-20T16:25:39.763Z,2.67
2019-06-20T16:28:08.936Z,3.08
2019-06-20T16:30:38.530Z,3.35
2019-06-20T16:33:07.727Z,2.80
2019-06-20T16:35:37.004Z,2.72
2019-06-20T16:38:06.369Z,2.27
2019-06-20T16:40:47.225Z,2.42
2019-06-20T16:43:16.828Z,2.15
2019-06-20T16:45:45.957Z,2.25
2019-06-20T16:48:15.391Z,2.00
2019-06-20T16:50:44.675Z,1.50
2019-06-20T16:53:14.144Z,1.23
2019-06-20T16:55:43.566Z,1.45
2019-06-20T16:58:13.078Z,1.40
2019-06-20T17:00:42.770Z,1.45
2019-06-20T17:03:12.640Z,1.47
2019-06-20T17:05:42.155Z,1.30
2019-06-20T17:08:11.362Z,1.20
2019-06-20T17:10:40.775Z,1.32
2019-06-20T17:13:10.251Z,1.47
2019-06-20T17:15:39.936Z,1.10
2019-06-20T17:18:09.113Z,1.20
2019-06-20T17:20:38.833Z,1.47
2019-06-20T17:23:08.447Z,1.30
2019-06-20T17:25:37.900Z,1.42
2019-06-20T17:28:07.293Z,1.60
2019-06-20T17:30:37.000Z,1.70
2019-06-20T17:33:06.490Z,1.50
2019-06-20T17:35:35.967Z,1.50
2019-06-20T17:38:05.699Z,1.25
2019-06-20T17:40:34.923Z,1.30
2019-06-20T17:43:04.521Z,1.20
2019-06-20T17:45:33.892Z,1.20
2019-06-20T17:48:03.165Z,1.00
2019-06-20T17:50:32.228Z,1.20
2019-06-20T17:53:01.268Z,1.20
2019-06-20T17:55:30.550Z,1.20
2019-06-20T17:57:59.993Z,1.20
2019-06-20T18:00:29.524Z,1.30
2019-06-20T18:02:58.977Z,1.52
2019-06-20T18:05:28.228Z,1.30
2019-06-20T18:07:57.238Z,1.40
2019-06-20T18:10:26.795Z,1.20
2019-06-20T18:12:56.087Z,1.40
2019-06-20T18:15:26.862Z,1.52
2019-06-20T18:17:56.233Z,1.30
2019-06-20T18:20:26.060Z,1.75
2019-06-20T18:22:55.081Z,1.60
2019-06-20T18:25:24.605Z,1.70
2019-06-20T18:27:53.578Z,1.70
2019-06-20T18:30:25.704Z,1.50
2019-06-20T18:32:55.364Z,1.67
2019-06-20T18:35:24.654Z,1.47
2019-06-20T18:37:53.961Z,1.70
2019-06-20T18:40:23.143Z,1.80
2019-06-20T18:42:52.333Z,1.57
2019-06-20T18:45:21.597Z,1.50
2019-06-20T18:47:50.876Z,1.57
2019-06-20T18:50:20.069Z,1.27
2019-06-20T18:52:52.495Z,1.47
2019-06-20T18:55:20.603Z,1.67
2019-06-20T18:57:49.657Z,1.80
2019-06-20T19:00:33.593Z,1.80
2019-06-20T19:02:50.775Z,1.67
2019-06-20T19:05:20.459Z,1.60
2019-06-20T19:07:49.757Z,1.60
2019-06-20T19:10:21.743Z,1.82
2019-06-20T19:12:50.997Z,1.80
2019-06-20T19:15:21.912Z,1.95
2019-06-20T19:17:51.348Z,1.70
2019-06-20T19:20:20.688Z,1.67
2019-06-20T19:22:50.333Z,2.40
2019-06-20T19:25:20.071Z,2.00
2019-06-20T19:27:49.433Z,1.77
2019-06-20T19:30:19.332Z,1.70
2019-06-20T19:32:48.761Z,1.98
2019-06-20T19:35:18.298Z,1.47
2019-06-20T19:37:47.375Z,1.70
2019-06-20T19:40:18.588Z,1.72
2019-06-20T19:42:47.688Z,2.07
2019-06-20T19:45:16.879Z,1.60
2019-06-20T19:47:46.095Z,1.80
2019-06-20T19:50:15.356Z,1.98
2019-06-20T19:52:44.527Z,1.70
2019-06-20T19:55:14.042Z,1.70
2019-06-20T19:57:43.158Z,1.87
2019-06-20T20:00:12.982Z,1.92
2019-06-20T20:02:42.155Z,1.92
2019-06-20T20:05:19.033Z,1.52
2019-06-20T20:07:41.669Z,1.50
2019-06-20T20:10:10.943Z,1.90
2019-06-20T20:12:39.682Z,1.75
2019-06-20T20:15:12.540Z,1.60
2019-06-20T20:17:41.332Z,1.57
2019-06-20T20:20:10.884Z,1.65
2019-06-20T20:22:39.613Z,1.50
2019-06-20T20:25:09.032Z,1.42
2019-06-20T20:27:37.724Z,1.87
2019-06-20T20:30:10.695Z,1.80
2019-06-20T20:32:39.686Z,2.00
2019-06-20T20:35:08.531Z,1.72
2019-06-20T20:37:37.314Z,1.52
2019-06-20T20:40:08.437Z,1.82
2019-06-20T20:42:37.212Z,1.80
2019-06-20T20:45:07.254Z,1.80
2019-06-20T20:47:35.904Z,1.62
2019-06-20T20:50:06.161Z,2.12
2019-06-20T20:52:34.773Z,2.10
2019-06-20T20:55:04.501Z,1.80
2019-06-20T20:57:33.230Z,1.98
2019-06-20T21:00:02.244Z,1.85
2019-06-20T21:02:30.892Z,1.83
2019-06-20T21:04:59.446Z,1.93
2019-06-20T21:07:28.166Z,1.70
2019-06-20T21:09:56.832Z,1.87
2019-06-20T21:12:25.497Z,1.80
2019-06-20T21:14:54.128Z,1.70
2019-06-20T21:17:22.684Z,1.90
2019-06-20T21:19:51.310Z,1.80
2019-06-20T21:22:20.039Z,1.60
2019-06-20T21:24:48.630Z,1.82
2019-06-20T21:27:17.316Z,1.72
2019-06-20T21:29:45.960Z,2.22
2019-06-20T21:32:14.786Z,2.15
2019-06-20T21:34:43.337Z,1.77
2019-06-20T21:37:12.076Z,1.50
2019-06-20T21:39:40.595Z,2.10
2019-06-20T21:42:09.264Z,1.80
2019-06-20T21:44:37.845Z,1.80
2019-06-20T21:47:06.572Z,1.95
2019-06-20T21:49:35.207Z,1.80
2019-06-20T21:52:03.954Z,2.05
2019-06-20T21:54:32.587Z,1.80
2019-06-20T21:57:01.293Z,1.93
2019-06-20T21:59:29.962Z,1.92
2019-06-20T22:01:58.644Z,2.10
2019-06-20T22:04:27.285Z,1.70
2019-06-20T22:06:56.099Z,1.80
2019-06-20T22:09:24.891Z,1.98
2019-06-20T22:11:53.559Z,1.90
2019-06-20T22:14:22.126Z,2.03
2019-06-20T22:16:50.754Z,2.27
2019-06-20T22:19:19.357Z,2.17
2019-06-20T22:21:47.956Z,2.05
2019-06-20T22:24:16.567Z,2.05
2019-06-20T22:26:45.177Z,2.40
2019-06-20T22:29:13.899Z,2.30
2019-06-20T22:31:42.622Z,2.20
2019-06-20T22:34:11.334Z,2.02
2019-06-20T22:36:40.824Z,2.08
2019-06-20T22:39:09.698Z,2.40
2019-06-20T22:41:38.367Z,2.27
2019-06-20T22:44:06.884Z,2.40
2019-06-20T22:46:35.497Z,2.05
2019-06-20T22:49:04.184Z,2.65
2019-06-20T22:51:32.783Z,2.00
2019-06-20T22:54:01.500Z,2.40
2019-06-20T22:56:30.151Z,2.20
2019-06-20T22:58:58.773Z,2.02
2019-06-20T23:01:27.586Z,2.50
2019-06-20T23:03:56.442Z,2.10
2019-06-20T23:06:25.144Z,2.35
2019-06-20T23:08:53.705Z,2.33
2019-06-20T23:11:22.457Z,2.50
2019-06-20T23:13:51.074Z,2.27
2019-06-20T23:16:19.837Z,2.47
2019-06-20T23:18:48.480Z,2.40
2019-06-20T23:21:17.296Z,2.50
2019-06-20T23:23:45.961Z,2.65
2019-06-20T23:26:14.981Z,2.20
2019-06-20T23:28:45.229Z,2.70
2019-06-20T23:31:13.887Z,2.80
2019-06-20T23:33:42.559Z,2.65
2019-06-20T23:36:11.334Z,2.40
2019-06-20T23:38:39.973Z,3.10
2019-06-20T23:41:08.548Z,2.70
2019-06-20T23:43:37.226Z,2.62
2019-06-20T23:46:05.851Z,2.52
2019-06-20T23:48:34.543Z,2.98
2019-06-20T23:51:03.287Z,2.37
2019-06-20T23:53:32.122Z,2.40
2019-06-20T23:56:00.753Z,3.15
2019-06-20T23:58:29.434Z,2.87
